Time;durP1;ratioP1;P1;durP2;ratioP2;P2;SDS_P1;SDS_P2;PMS_P1;PMS_P2;Temp;Humidity;BMP_temperature;BMP_pressure;BME280_temperature;BME280_humidity;BME280_pressure;Samples;Min_cycle;Max_cycle;Signal;HPM_P1;HPM_P2
2022/06/17 00:00:58;;;;;;;4.68;2.42;;;;;;;18.21;54.17;99608.75;5022999;28;20416;-78
2022/06/17 00:03:25;;;;;;;6.93;2.53;;;;;;;18.14;54.51;99608.25;5008470;28;20026;-78
2022/06/17 00:05:53;;;;;;;2.88;2.28;;;;;;;18.13;54.11;99612.84;5007103;28;20304;-77
2022/06/17 00:08:24;;;;;;;4.13;2.83;;;;;;;18.05;54.74;99601.81;5008094;28;20034;-77
2022/06/17 00:10:49;;;;;;;4.80;2.85;;;;;;;18.03;54.49;99598.59;5010562;28;20075;-78
2022/06/17 00:13:18;;;;;;;3.30;2.80;;;;;;;17.87;54.90;99590.56;5006931;28;20303;-77
2022/06/17 00:15:45;;;;;;;3.10;2.63;;;;;;;17.89;54.53;99580.28;5005461;28;20057;-77
2022/06/17 00:18:12;;;;;;;4.03;2.50;;;;;;;17.84;54.67;99583.00;5008212;28;20031;-77
2022/06/17 00:20:38;;;;;;;4.10;3.45;;;;;;;17.82;54.82;99606.00;5010469;28;20124;-77
2022/06/17 00:23:10;;;;;;;5.78;2.67;;;;;;;17.73;55.13;99581.47;5008443;28;20036;-77
2022/06/17 00:25:37;;;;;;;2.70;2.25;;;;;;;17.77;54.64;99593.31;5005555;28;20033;-77
2022/06/17 00:28:09;;;;;;;5.30;2.60;;;;;;;17.79;54.78;99595.75;5004118;28;20389;-78
2022/06/17 00:30:34;;;;;;;4.35;3.38;;;;;;;17.70;54.90;99595.50;5005706;28;20032;-77
2022/06/17 00:33:02;;;;;;;3.55;2.60;;;;;;;17.65;55.57;99606.31;5008977;28;20105;-78
2022/06/17 00:35:32;;;;;;;3.83;2.53;;;;;;;17.56;55.75;99597.16;5010717;28;20033;-77
2022/06/17 00:37:58;;;;;;;4.45;3.10;;;;;;;17.58;55.41;99605.78;5001358;28;20030;-77
2022/06/17 00:40:26;;;;;;;5.43;2.75;;;;;;;17.55;55.52;99600.16;5005247;28;20529;-78
2022/06/17 00:42:52;;;;;;;3.15;2.53;;;;;;;17.55;55.77;99600.97;5008646;28;20113;-78
2022/06/17 00:45:27;;;;;;;4.82;2.95;;;;;;;17.53;55.57;99597.75;5002784;28;20034;-78
2022/06/17 00:48:01;;;;;;;5.45;3.10;;;;;;;17.58;55.48;99608.50;5008201;28;20324;-77
2022/06/17 00:50:35;;;;;;;4.18;2.45;;;;;;;17.49;55.31;99603.94;5008610;28;20042;-77
2022/06/17 00:53:10;;;;;;;3.88;3.03;;;;;;;17.30;55.90;99608.31;5008896;28;20084;-77
2022/06/17 00:55:40;;;;;;;;;;;;;;;17.31;55.78;99610.72;5006639;28;20571;-78
2022/06/17 00:58:21;;;;;;;4.03;3.15;;;;;;;17.33;55.82;99615.84;5006669;28;19914;-77
2022/06/17 01:00:51;;;;;;;3.75;2.58;;;;;;;17.31;55.83;99624.22;4987482;28;20038;-78
2022/06/17 01:03:25;;;;;;;3.13;2.83;;;;;;;17.31;56.12;99615.31;5007186;28;20034;-78
2022/06/17 01:05:55;;;;;;;7.45;2.80;;;;;;;17.29;55.69;99629.06;4991815;28;20513;-77
2022/06/17 01:11:21;;;;;;;6.63;2.58;;;;;;;17.14;56.46;99621.00;5007972;28;20107;-78
2022/06/17 01:13:49;;;;;;;4.70;3.30;;;;;;;17.07;56.40;99621.28;5005529;28;20041;-78
2022/06/17 01:16:16;;;;;;;2.90;2.70;;;;;;;17.13;56.29;99630.16;4991211;28;20088;-77
2022/06/17 01:18:44;;;;;;;4.43;2.90;;;;;;;16.92;56.28;99613.22;5005451;28;20109;-77
2022/06/17 01:21:40;;;;;;;5.45;3.00;;;;;;;16.98;56.28;99636.41;5006366;28;20033;-78
2022/06/17 01:24:08;;;;;;;3.08;2.78;;;;;;;16.94;56.66;99629.13;5001641;28;20037;-78
2022/06/17 01:26:34;;;;;;;3.65;2.55;;;;;;;17.03;56.45;99643.69;5001549;28;20112;-78
2022/06/17 01:29:00;;;;;;;2.83;2.63;;;;;;;16.96;56.52;99635.84;5021667;28;20620;-77
2022/06/17 01:31:25;;;;;;;4.22;3.38;;;;;;;16.97;56.22;99644.75;4988634;28;20034;-78
2022/06/17 01:33:50;;;;;;;3.15;2.90;;;;;;;16.90;56.94;99636.13;5007265;28;20034;-77
2022/06/17 01:36:24;;;;;;;4.57;2.90;;;;;;;16.79;57.11;99626.41;5006669;28;20395;-78
2022/06/17 01:38:52;;;;;;;3.90;2.80;;;;;;;16.78;56.84;99630.19;5005687;28;20497;-78
2022/06/17 01:41:20;;;;;;;5.10;2.95;;;;;;;16.74;57.28;99642.59;5005588;28;20589;-78
2022/06/17 01:43:58;;;;;;;5.15;3.05;;;;;;;16.75;56.77;99628.84;5004160;28;20030;-78
2022/06/17 01:46:28;;;;;;;4.45;3.78;;;;;;;16.71;56.95;99641.22;5008179;28;20626;-78
2022/06/17 01:49:10;;;;;;;6.63;3.25;;;;;;;16.63;57.42;99630.19;5002116;28;20033;-78
2022/06/17 01:51:40;;;;;;;5.55;2.95;;;;;;;16.66;57.06;99629.66;5005584;28;20068;-77
2022/06/17 01:54:13;;;;;;;6.43;3.45;;;;;;;16.64;57.22;99643.41;5006359;28;20030;-77
2022/06/17 01:56:43;;;;;;;5.43;3.80;;;;;;;16.72;56.94;99647.44;5006087;28;20048;-77
2022/06/17 01:59:22;;;;;;;3.75;2.97;;;;;;;16.70;56.93;99639.63;5006090;28;20401;-77
2022/06/17 02:01:52;;;;;;;3.53;3.10;;;;;;;16.59;57.40;99639.88;5020902;28;20057;-77
2022/06/17 02:04:29;;;;;;;5.60;2.90;;;;;;;16.58;57.53;99644.47;5006908;28;20061;-77
2022/06/17 02:07:10;;;;;;;6.32;3.00;;;;;;;16.88;56.83;99638.28;5003152;28;20030;-77
2022/06/17 02:09:35;;;;;;;9.93;3.22;;;;;;;16.54;57.26;99642.56;5007968;28;20033;-77
2022/06/17 02:12:01;;;;;;;3.50;2.90;;;;;;;16.50;57.57;99642.28;5008129;28;20045;-77
2022/06/17 02:14:28;;;;;;;3.72;3.13;;;;;;;16.49;57.39;99640.63;5008235;28;20033;-77
2022/06/17 02:16:54;;;;;;;4.38;3.20;;;;;;;16.37;57.55;99635.50;5007118;28;20548;-77
2022/06/17 02:19:23;;;;;;;5.53;3.28;;;;;;;16.36;57.82;99649.22;5006840;28;20029;-77
2022/06/17 02:22:04;;;;;;;4.97;3.17;;;;;;;16.33;58.03;99647.91;4991055;28;20091;-77
2022/06/17 02:24:30;;;;;;;4.32;3.30;;;;;;;16.32;57.98;99648.16;5007261;28;20033;-77
2022/06/17 02:26:59;;;;;;;6.63;3.60;;;;;;;16.28;57.78;99664.06;5008291;28;20018;-77
2022/06/17 02:29:25;;;;;;;4.38;2.83;;;;;;;16.27;57.71;99665.09;5007897;28;20027;-77
2022/06/17 02:31:51;;;;;;;6.88;3.25;;;;;;;16.56;57.03;99659.28;5021322;28;20083;-78
2022/06/17 02:34:18;;;;;;;4.28;3.10;;;;;;;16.60;57.07;99647.69;5007515;28;20034;-78
2022/06/17 02:36:53;;;;;;;5.90;3.28;;;;;;;16.27;57.96;99667.00;5005743;28;20095;-77
2022/06/17 02:39:19;;;;;;;6.22;3.03;;;;;;;16.06;57.79;99649.16;5006253;28;20084;-77
2022/06/17 02:41:47;;;;;;;3.53;3.08;;;;;;;16.10;57.91;99664.53;5007630;28;20038;-78
2022/06/17 02:44:20;;;;;;;2.88;2.67;;;;;;;16.13;57.75;99666.69;5009019;28;20044;-77
2022/06/17 02:46:47;;;;;;;5.63;2.92;;;;;;;16.26;57.49;99658.13;5004158;28;20029;-77
2022/06/17 02:49:25;;;;;;;3.33;3.03;;;;;;;16.06;57.74;99652.66;5003820;28;20056;-77
2022/06/17 02:51:51;;;;;;;6.50;3.00;;;;;;;15.90;57.97;99642.91;5007368;28;20037;-78
2022/06/17 02:54:38;;;;;;;5.18;3.15;;;;;;;16.09;58.10;99664.78;5002166;28;20041;-78
2022/06/17 02:57:08;;;;;;;5.03;3.22;;;;;;;16.18;57.66;99653.25;5006308;28;20393;-77
2022/06/17 02:59:41;;;;;;;5.40;2.92;;;;;;;15.97;58.22;99653.41;5006534;28;20038;-78
2022/06/17 03:02:17;;;;;;;3.83;3.30;;;;;;;15.97;57.77;99654.25;5004998;28;20029;-78
2022/06/17 03:04:44;;;;;;;6.68;3.40;;;;;;;15.95;58.56;99652.88;5004029;28;20033;-77
2022/06/17 03:07:14;;;;;;;3.00;2.80;;;;;;;15.91;58.38;99641.03;5006250;28;20158;-77
2022/06/17 03:09:39;;;;;;;6.68;3.28;;;;;;;15.88;58.20;99658.50;5000112;28;20029;-77
2022/06/17 03:12:34;;;;;;;4.78;2.92;;;;;;;15.86;58.67;99643.72;5007186;28;20030;-77
2022/06/17 03:15:10;;;;;;;3.88;3.30;;;;;;;15.77;58.36;99638.81;5000812;28;20050;-78
2022/06/17 03:17:39;;;;;;;6.20;3.38;;;;;;;15.81;58.65;99649.88;5003698;28;20632;-77
2022/06/17 03:20:07;;;;;;;3.88;3.13;;;;;;;15.74;58.80;99649.31;5004346;28;20525;-78
2022/06/17 03:22:35;;;;;;;4.95;3.05;;;;;;;15.74;58.57;99643.94;5005265;28;20037;-77
2022/06/17 03:25:25;;;;;;;3.90;3.30;;;;;;;15.85;58.47;99653.66;5005356;28;20054;-77
2022/06/17 03:27:55;;;;;;;6.07;3.30;;;;;;;15.80;58.32;99632.09;5000492;28;20378;-78
2022/06/17 03:30:31;;;;;;;4.43;3.50;;;;;;;15.74;58.82;99649.31;5008594;28;20543;-78
2022/06/17 03:33:06;;;;;;;;;;;;;;;15.80;58.86;99652.81;5010868;28;20400;-78
2022/06/17 03:35:35;;;;;;;4.03;3.10;;;;;;;15.73;58.62;99642.28;5009617;28;20392;-77
2022/06/17 03:38:05;;;;;;;3.38;3.08;;;;;;;15.77;58.82;99654.16;5007329;28;20040;-77
2022/06/17 03:40:36;;;;;;;3.83;3.40;;;;;;;15.82;58.95;99658.75;5008906;28;20034;-77
2022/06/17 03:43:02;;;;;;;6.15;3.38;;;;;;;15.78;59.24;99663.84;5012530;28;20037;-78
2022/06/17 03:45:39;;;;;;;6.07;3.45;;;;;;;15.78;59.16;99645.00;5008167;28;20437;-78
2022/06/17 03:48:16;;;;;;;5.78;3.63;;;;;;;15.73;59.44;99653.88;5012314;28;20541;-78
2022/06/17 03:50:45;;;;;;;5.57;3.78;;;;;;;15.86;59.67;99676.03;5010167;28;20378;-77
2022/06/17 03:53:19;;;;;;;4.93;4.43;;;;;;;15.85;59.61;99685.16;5010998;28;20037;-77
2022/06/17 03:55:45;;;;;;;5.05;3.95;;;;;;;16.06;59.11;99676.91;5013131;28;20045;-77
2022/06/17 03:58:16;;;;;;;5.97;3.67;;;;;;;16.08;58.95;99677.44;5009224;28;20256;-78
2022/06/17 04:01:04;;;;;;;6.30;3.42;;;;;;;15.94;59.86;99691.66;5007813;28;20033;-78
2022/06/17 04:03:34;;;;;;;7.53;4.03;;;;;;;15.93;59.80;99676.56;5008627;28;20060;-77
2022/06/17 04:06:05;;;;;;;3.95;3.55;;;;;;;16.15;59.87;99683.41;5009184;28;20534;-77
2022/06/17 04:08:31;;;;;;;7.18;3.67;;;;;;;16.25;59.44;99675.34;4996018;28;20033;-78
2022/06/17 04:10:57;;;;;;;4.32;3.92;;;;;;;16.18;60.02;99677.50;5011529;28;20029;-78
2022/06/17 04:13:27;;;;;;;7.43;3.88;;;;;;;15.79;62.08;99684.34;5005851;28;20026;-78
2022/06/17 04:16:05;;;;;;;5.15;3.20;;;;;;;15.61;63.34;99682.06;5021890;28;20443;-78
2022/06/17 04:18:35;;;;;;;5.47;4.00;;;;;;;15.58;64.00;99696.84;5011711;28;20026;-78
2022/06/17 04:21:02;;;;;;;4.03;3.35;;;;;;;15.90;62.45;99702.13;5010190;28;20066;-78
2022/06/17 04:23:33;;;;;;;6.00;3.78;;;;;;;16.54;60.13;99693.75;5007995;28;20061;-78
2022/06/17 04:26:20;;;;;;;3.65;3.35;;;;;;;16.41;61.68;99705.84;5014800;28;20038;-78
2022/06/17 04:28:52;;;;;;;9.48;4.90;;;;;;;16.00;64.45;99690.59;5009436;28;20033;-78
2022/06/17 04:31:26;;;;;;;8.77;4.43;;;;;;;15.82;64.05;99697.25;5011347;28;20104;-78
2022/06/17 04:34:04;;;;;;;4.72;3.60;;;;;;;15.98;64.02;99690.06;5008193;28;20030;-78
2022/06/17 04:36:35;;;;;;;5.28;3.95;;;;;;;16.36;62.20;99705.81;5007836;28;20022;-78
2022/06/17 04:39:18;;;;;;;6.70;4.97;;;;;;;16.34;62.82;99705.28;5006068;28;20460;-78
2022/06/17 04:41:44;;;;;;;5.57;4.50;;;;;;;15.60;62.89;99705.47;5009506;28;20477;-78
2022/06/17 04:44:13;;;;;;;8.73;5.10;;;;;;;15.41;64.81;99706.94;5007423;28;20046;-78
2022/06/17 04:46:48;;;;;;;8.73;3.97;;;;;;;15.62;64.79;99711.41;5008220;28;20029;-78
2022/06/17 04:49:26;;;;;;;5.47;3.80;;;;;;;16.44;61.82;99708.84;5008413;28;20428;-78
2022/06/17 04:51:59;;;;;;;7.53;4.07;;;;;;;16.87;59.59;99709.47;5002503;28;20108;-78
2022/06/17 04:54:27;;;;;;;8.52;4.55;;;;;;;17.17;58.74;99696.00;5011143;28;20036;-78
2022/06/17 04:56:55;;;;;;;6.97;3.88;;;;;;;17.35;58.56;99706.25;5010352;28;20601;-78
2022/06/17 04:59:32;;;;;;;5.95;3.90;;;;;;;17.51;58.39;99707.06;4994906;28;20129;-79
2022/06/17 05:01:59;;;;;;;6.80;4.50;;;;;;;17.60;58.53;99708.94;5011080;28;20385;-78
2022/06/17 05:04:25;;;;;;;6.55;3.95;;;;;;;17.71;57.66;99704.34;5008761;28;20141;-78
2022/06/17 05:06:51;;;;;;;4.40;3.90;;;;;;;17.78;57.87;99707.53;5009184;28;20073;-78
2022/06/17 05:09:29;;;;;;;4.80;4.20;;;;;;;17.75;57.61;99703.50;5010927;28;20064;-78
2022/06/17 05:12:04;;;;;;;6.72;3.30;;;;;;;17.78;57.38;99708.34;5016710;28;20540;-78
2022/06/17 05:14:47;;;;;;;6.72;3.88;;;;;;;17.51;59.59;99707.88;5023956;28;20030;-78
2022/06/17 05:17:12;;;;;;;9.02;5.35;;;;;;;17.38;60.47;99710.28;5004663;28;20033;-77
2022/06/17 05:19:38;;;;;;;7.63;5.13;;;;;;;16.70;61.80;99688.16;5008986;28;20038;-78
2022/06/17 05:22:23;;;;;;;4.97;4.15;;;;;;;17.25;59.52;99690.06;4990554;28;20034;-78
2022/06/17 05:24:48;;;;;;;7.82;4.90;;;;;;;17.14;61.40;99707.34;5009943;28;20026;-78
2022/06/17 05:27:14;;;;;;;4.40;3.53;;;;;;;17.66;58.59;99715.94;4990257;28;20022;-78
2022/06/17 05:29:39;;;;;;;5.50;3.78;;;;;;;17.84;57.81;99717.25;5010455;28;20060;-78
2022/06/17 05:32:05;;;;;;;6.50;4.50;;;;;;;18.02;57.65;99716.63;5008125;28;20362;-78
2022/06/17 05:34:30;;;;;;;8.38;4.88;;;;;;;16.79;62.97;99718.91;5011184;28;20025;-77
2022/06/17 05:36:56;;;;;;;5.55;4.20;;;;;;;17.44;59.41;99696.50;4989921;28;20038;-78
2022/06/17 05:39:23;;;;;;;5.35;4.40;;;;;;;17.52;61.12;99706.78;5006096;28;20065;-77
2022/06/17 05:41:48;;;;;;;6.00;4.20;;;;;;;17.88;59.14;99689.44;5008286;28;20026;-77
2022/06/17 05:44:14;;;;;;;5.22;3.75;;;;;;;17.51;60.10;99702.47;5010157;28;20033;-77
2022/06/17 05:46:39;;;;;;;6.70;4.05;;;;;;;17.73;59.04;99696.75;5009876;28;20053;-77
2022/06/17 05:49:05;;;;;;;5.35;3.38;;;;;;;17.87;58.91;99679.69;5010215;28;20034;-78
2022/06/17 05:51:31;;;;;;;5.20;3.97;;;;;;;18.05;58.78;99715.28;4993865;28;20030;-78
2022/06/17 05:53:56;;;;;;;7.18;5.65;;;;;;;16.93;64.05;99708.38;5008764;28;20041;-77
2022/06/17 05:56:22;;;;;;;8.27;4.60;;;;;;;16.75;62.72;99719.72;4991866;28;20021;-77
2022/06/17 05:58:47;;;;;;;9.70;5.43;;;;;;;17.18;62.97;99719.19;5010626;28;20048;-77
2022/06/17 06:01:13;;;;;;;13.30;5.47;;;;;;;17.22;63.24;99696.00;5009912;28;20490;-77
2022/06/17 06:03:38;;;;;;;10.23;5.45;;;;;;;17.24;63.83;99716.22;5009782;28;20038;-77
2022/06/17 06:06:04;;;;;;;5.57;4.13;;;;;;;17.06;62.83;99700.56;5011171;28;20058;-77
2022/06/17 06:08:29;;;;;;;8.27;5.55;;;;;;;17.20;63.72;99698.97;5010483;28;20034;-77
2022/06/17 06:10:54;;;;;;;10.85;6.18;;;;;;;16.63;66.57;99713.75;5007821;28;20064;-77
2022/06/17 06:13:22;;;;;;;9.18;5.07;;;;;;;17.10;63.47;99704.34;4984368;28;20068;-77
2022/06/17 06:15:51;;;;;;;9.65;5.13;;;;;;;17.55;62.52;99710.84;5010827;28;20569;-78
2022/06/17 06:18:23;;;;;;;7.60;4.85;;;;;;;18.04;60.77;99719.09;5010444;28;20482;-77
2022/06/17 06:20:48;;;;;;;5.20;4.40;;;;;;;18.08;59.54;99720.97;5010024;28;20038;-77
2022/06/17 06:23:14;;;;;;;8.60;4.68;;;;;;;18.42;58.03;99710.25;5009544;28;20038;-78
2022/06/17 06:25:40;;;;;;;11.20;4.32;;;;;;;18.63;57.46;99719.94;4992515;28;20026;-77
2022/06/17 06:28:15;;;;;;;7.43;5.32;;;;;;;17.61;63.19;99726.75;5009891;28;20042;-77
2022/06/17 06:30:40;;;;;;;5.30;4.35;;;;;;;18.42;58.18;99724.59;5003903;28;20382;-77
2022/06/17 06:33:06;;;;;;;5.80;3.80;;;;;;;18.71;57.97;99738.25;4990640;28;20037;-78
2022/06/17 06:35:35;;;;;;;10.77;5.25;;;;;;;18.53;59.28;99738.91;5001240;28;20040;-77
2022/06/17 06:38:02;;;;;;;14.15;5.50;;;;;;;17.46;63.30;99750.22;4984841;28;20035;-77
2022/06/17 06:40:28;;;;;;;8.50;4.28;;;;;;;17.96;60.77;99748.28;5019603;28;20030;-77
2022/06/17 06:42:54;;;;;;;15.20;5.75;;;;;;;18.00;62.76;99743.13;5006138;28;20041;-77
2022/06/17 06:45:27;;;;;;;5.30;3.80;;;;;;;18.65;57.86;99740.16;5006968;28;20042;-77
2022/06/17 06:47:55;;;;;;;12.40;4.75;;;;;;;18.29;61.66;99740.59;5001460;28;20030;-77
2022/06/17 06:50:24;;;;;;;12.77;5.45;;;;;;;18.22;62.00;99740.06;5010586;28;20394;-77
2022/06/17 06:52:49;;;;;;;4.70;3.88;;;;;;;18.46;59.63;99749.19;5009511;28;20398;-77
2022/06/17 06:55:16;;;;;;;6.25;4.07;;;;;;;18.88;58.00;99741.41;5006221;28;20034;-77
2022/06/17 06:57:46;;;;;;;8.50;5.45;;;;;;;18.78;61.18;99746.88;5005817;28;20038;-77
2022/06/17 07:00:15;;;;;;;18.73;4.78;;;;;;;18.94;58.27;99742.97;4992141;28;20087;-77
2022/06/17 07:02:41;;;;;;;9.77;4.85;;;;;;;18.85;61.34;99739.25;5009163;28;20034;-77
2022/06/17 07:05:06;;;;;;;8.82;4.13;;;;;;;18.95;58.90;99725.66;4990686;28;20404;-77
2022/06/17 07:07:32;;;;;;;11.60;4.53;;;;;;;18.93;62.01;99725.13;5008807;28;20030;-77
2022/06/17 07:09:57;;;;;;;5.35;3.88;;;;;;;18.07;62.04;99722.03;5007245;28;20429;-77
2022/06/17 07:12:22;;;;;;;7.07;4.63;;;;;;;18.26;61.80;99703.34;5000612;28;20409;-77
2022/06/17 07:14:48;;;;;;;13.10;4.80;;;;;;;18.35;62.78;99724.06;4993510;28;20034;-77
2022/06/17 07:17:14;;;;;;;5.35;3.50;;;;;;;18.78;59.84;99727.94;4993908;28;20089;-77
2022/06/17 07:19:39;;;;;;;10.35;4.88;;;;;;;18.97;60.88;99736.19;4992794;28;20037;-77
2022/06/17 07:22:05;;;;;;;10.20;3.88;;;;;;;19.15;58.45;99717.41;4995646;28;20382;-77
2022/06/17 07:24:31;;;;;;;6.63;3.75;;;;;;;19.44;58.90;99722.84;4996528;28;20030;-77
2022/06/17 07:26:56;;;;;;;5.38;3.67;;;;;;;19.36;58.52;99715.34;4995838;28;20477;-77
2022/06/17 07:29:21;;;;;;;4.13;3.20;;;;;;;19.58;57.69;99714.88;5010407;28;20034;-77
2022/06/17 07:31:47;;;;;;;7.97;3.55;;;;;;;19.60;57.90;99726.22;5005478;28;20040;-77
2022/06/17 07:34:12;;;;;;;4.72;3.13;;;;;;;19.51;58.63;99726.03;5011140;28;20125;-77
2022/06/17 07:42:07;;;;;;;3.92;3.10;;;;;;;19.94;56.87;99727.75;5008309;28;20176;-77
2022/06/17 07:44:33;;;;;;;4.53;3.28;;;;;;;20.06;56.37;99730.06;4986463;28;20550;-77
2022/06/17 07:46:58;;;;;;;9.65;3.65;;;;;;;19.59;59.63;99727.31;5005773;28;20030;-77
2022/06/17 07:49:24;;;;;;;8.23;4.07;;;;;;;19.29;60.14;99728.34;4985930;28;20038;-77
2022/06/17 07:51:50;;;;;;;5.03;3.75;;;;;;;18.93;59.27;99713.50;5012175;28;20029;-77
2022/06/17 07:54:16;;;;;;;7.57;4.25;;;;;;;19.17;58.68;99728.75;5003325;28;20045;-77
2022/06/17 07:56:41;;;;;;;5.00;4.03;;;;;;;19.10;59.20;99725.53;5002624;28;20041;-77
2022/06/17 07:59:06;;;;;;;6.38;3.03;;;;;;;20.00;57.06;99728.50;4995734;28;20029;-77
2022/06/17 08:01:32;;;;;;;5.10;4.13;;;;;;;19.80;59.63;99720.59;4994529;28;20036;-77
2022/06/17 08:03:57;;;;;;;4.18;3.33;;;;;;;20.31;56.42;99715.44;5002254;28;20113;-78
2022/06/17 08:06:23;;;;;;;8.80;4.07;;;;;;;20.42;57.24;99727.78;5012196;28;20066;-78
2022/06/17 08:08:48;;;;;;;4.47;2.72;;;;;;;20.37;56.08;99711.56;5011764;28;20551;-77
2022/06/17 08:11:14;;;;;;;7.45;3.45;;;;;;;20.56;55.29;99707.75;5011575;28;20068;-77
2022/06/17 08:13:39;;;;;;;4.78;3.10;;;;;;;20.63;55.48;99715.53;5003249;28;20040;-78
2022/06/17 08:16:07;;;;;;;7.07;3.30;;;;;;;20.40;55.95;99692.78;5011647;28;20034;-77
2022/06/17 08:18:34;;;;;;;3.10;2.88;;;;;;;20.42;56.22;99704.13;5006941;28;20037;-77
2022/06/17 08:20:59;;;;;;;7.00;3.58;;;;;;;20.50;56.27;99714.34;5011867;28;20421;-77
2022/06/17 08:23:25;;;;;;;6.63;3.50;;;;;;;20.76;55.27;99695.81;5011703;28;20030;-77
2022/06/17 08:25:51;;;;;;;5.15;3.00;;;;;;;20.83;55.23;99709.81;5011828;28;20022;-77
2022/06/17 08:28:18;;;;;;;6.90;2.90;;;;;;;21.00;54.73;99701.94;4991513;28;20133;-77
2022/06/17 08:30:47;;;;;;;3.90;2.90;;;;;;;21.15;54.32;99711.78;5011573;28;20545;-77
2022/06/17 08:33:13;;;;;;;6.20;3.45;;;;;;;20.66;54.34;99717.66;5012710;28;20083;-77
2022/06/17 08:35:43;;;;;;;4.55;2.78;;;;;;;21.11;54.20;99716.19;4995054;28;20063;-77
2022/06/17 08:38:08;;;;;;;4.93;3.10;;;;;;;21.08;53.96;99703.22;5011912;28;20052;-77
2022/06/17 08:40:43;;;;;;;3.90;2.83;;;;;;;21.16;53.66;99697.94;5005765;28;20466;-77
2022/06/17 08:43:27;;;;;;;8.73;3.15;;;;;;;21.26;53.19;99691.50;5007459;28;20038;-77
2022/06/17 08:46:13;;;;;;;9.68;4.32;;;;;;;21.10;54.05;99690.16;5011230;28;20113;-78
2022/06/17 08:48:56;;;;;;;5.40;3.45;;;;;;;21.22;55.06;99677.72;5010521;28;20026;-77
2022/06/17 08:51:54;;;;;;;4.65;3.15;;;;;;;21.57;52.76;99684.44;5011192;28;20033;-77
2022/06/17 08:54:28;;;;;;;8.90;3.90;;;;;;;21.02;54.34;99678.03;5000228;28;20505;-77
2022/06/17 08:57:10;;;;;;;6.43;2.90;;;;;;;21.38;54.04;99673.63;5008965;28;20091;-77
2022/06/17 08:59:48;;;;;;;4.70;3.40;;;;;;;21.57;54.42;99679.00;5011133;28;20029;-77
2022/06/17 09:02:27;;;;;;;6.13;2.95;;;;;;;21.47;54.30;99665.63;5012242;28;20034;-77
2022/06/17 09:05:11;;;;;;;10.20;4.65;;;;;;;21.85;53.13;99675.22;5012465;28;20477;-77
2022/06/17 09:07:53;;;;;;;11.52;3.25;;;;;;;21.96;53.54;99664.94;5011898;28;20022;-77
2022/06/17 09:10:53;;;;;;;4.35;3.05;;;;;;;21.82;54.42;99662.19;5012314;28;20485;-77
2022/06/17 09:13:33;;;;;;;5.63;2.72;;;;;;;21.99;53.03;99659.72;5008318;28;20393;-77
2022/06/17 09:16:08;;;;;;;5.15;3.20;;;;;;;22.19;52.52;99659.28;5011246;28;20109;-77
2022/06/17 09:18:40;;;;;;;5.90;2.85;;;;;;;22.24;51.97;99640.13;5011451;28;20404;-77
2022/06/17 09:21:27;;;;;;;9.48;3.22;;;;;;;22.38;51.27;99643.66;5007958;28;20052;-77
2022/06/17 09:23:55;;;;;;;5.45;2.90;;;;;;;22.43;51.21;99652.81;5005298;28;20091;-77
2022/06/17 09:26:38;;;;;;;6.93;3.58;;;;;;;22.43;51.58;99663.69;4994567;28;20041;-77
2022/06/17 09:29:26;;;;;;;4.45;3.17;;;;;;;22.48;50.60;99669.81;5010533;28;20045;-77
2022/06/17 09:31:57;;;;;;;4.47;2.60;;;;;;;22.59;50.98;99664.94;5001647;28;20030;-78
2022/06/17 09:34:37;;;;;;;6.03;2.90;;;;;;;22.72;51.01;99655.94;5010577;28;20041;-78
2022/06/17 09:37:16;;;;;;;3.80;3.00;;;;;;;22.63;50.52;99653.16;5007546;28;20037;-78
2022/06/17 09:39:57;;;;;;;4.43;2.95;;;;;;;22.89;50.17;99651.44;5009284;28;20033;-77
2022/06/17 09:42:28;;;;;;;4.43;2.90;;;;;;;23.11;49.62;99645.19;4994595;28;20473;-78
2022/06/17 09:45:08;;;;;;;5.40;3.22;;;;;;;22.64;50.33;99646.63;5010025;28;20030;-78
2022/06/17 09:47:41;;;;;;;5.10;2.83;;;;;;;23.01;50.04;99651.69;5007724;28;20026;-78
2022/06/17 09:50:26;;;;;;;3.78;2.72;;;;;;;23.13;49.60;99654.66;5006509;28;20033;-78
2022/06/17 09:53:01;;;;;;;6.67;3.07;;;;;;;23.38;48.95;99641.53;4991807;28;20493;-78
2022/06/17 09:55:34;;;;;;;3.22;2.95;;;;;;;23.16;49.30;99636.06;4991988;28;20387;-77
2022/06/17 09:58:08;;;;;;;12.80;3.13;;;;;;;23.18;50.49;99633.84;4989838;28;20033;-77
2022/06/17 10:00:43;;;;;;;8.25;2.85;;;;;;;22.93;48.89;99643.47;4991667;28;20026;-77
2022/06/17 10:03:11;;;;;;;4.83;2.93;;;;;;;23.41;48.74;99638.19;5005153;28;20026;-78
2022/06/17 10:06:14;;;;;;;11.68;4.20;;;;;;;23.23;48.91;99644.63;5009112;28;20046;-78
2022/06/17 10:08:52;;;;;;;6.90;2.90;;;;;;;23.78;48.44;99643.16;5010526;28;20040;-77
2022/06/17 10:11:48;;;;;;;7.75;3.08;;;;;;;24.05;47.40;99644.88;5011155;28;20057;-78
2022/06/17 10:14:16;;;;;;;6.55;2.60;;;;;;;24.13;46.94;99650.34;5011247;28;20115;-78
2022/06/17 10:20:07;;;;;;;5.88;2.75;;;;;;;24.41;46.45;99656.31;5008862;28;20096;-78
2022/06/17 10:22:46;;;;;;;6.63;2.70;;;;;;;24.21;46.69;99646.81;5018598;28;20050;-78
2022/06/17 10:25:31;;;;;;;3.42;2.20;;;;;;;24.00;45.01;99634.06;5011138;28;20033;-78
2022/06/17 10:28:18;;;;;;;4.18;2.35;;;;;;;24.33;46.24;99654.38;5025525;28;20049;-78
2022/06/17 10:30:57;;;;;;;3.72;2.63;;;;;;;24.32;45.86;99650.03;5010728;28;20029;-78
2022/06/17 10:33:24;;;;;;;4.72;2.22;;;;;;;24.36;45.34;99635.44;5001848;28;20508;-78
2022/06/17 10:35:50;;;;;;;3.38;2.40;;;;;;;24.19;45.19;99635.41;5006898;28;20037;-78
2022/06/17 10:38:20;;;;;;;3.65;2.28;;;;;;;24.35;43.93;99641.22;4995009;28;20418;-78
2022/06/17 10:40:46;;;;;;;4.22;2.03;;;;;;;24.33;45.21;99638.03;5008609;28;20061;-78
2022/06/17 10:43:19;;;;;;;6.15;3.30;;;;;;;24.89;44.80;99640.63;5012691;28;20050;-78
2022/06/17 10:45:45;;;;;;;4.55;2.15;;;;;;;24.88;44.05;99643.69;5013920;28;20038;-78
2022/06/17 10:48:32;;;;;;;3.58;2.40;;;;;;;24.95;43.58;99649.44;5012907;28;20036;-78
2022/06/17 10:51:00;;;;;;;2.92;2.20;;;;;;;25.49;44.10;99636.97;5027690;28;20551;-78
2022/06/17 10:53:34;;;;;;;4.15;2.10;;;;;;;25.77;42.25;99635.41;5013732;28;20456;-78
2022/06/17 10:56:05;;;;;;;2.22;1.90;;;;;;;25.91;42.31;99631.28;5014307;28;20053;-78
2022/06/17 10:58:35;;;;;;;3.63;1.77;;;;;;;26.26;42.58;99644.78;5013993;28;20026;-78
2022/06/17 11:01:04;;;;;;;1.80;1.70;;;;;;;26.39;41.81;99639.06;5004287;28;20093;-78
2022/06/17 11:03:31;;;;;;;1.95;1.50;;;;;;;26.48;41.70;99639.81;5014717;28;20366;-78
2022/06/17 11:06:04;;;;;;;6.35;2.08;;;;;;;26.03;41.99;99630.59;5011316;28;20018;-78
2022/06/17 11:08:35;;;;;;;2.33;1.77;;;;;;;26.15;41.11;99627.16;4992943;28;20481;-78
2022/06/17 11:13:50;;;;;;;1.73;1.35;;;;;;;26.28;40.40;99631.56;5012617;28;20041;-78
2022/06/17 11:16:21;;;;;;;1.67;1.58;;;;;;;26.30;39.87;99630.09;5012027;28;20030;-78
2022/06/17 11:18:56;;;;;;;2.53;1.90;;;;;;;25.85;40.64;99631.81;5013783;28;20072;-78
2022/06/17 11:21:27;;;;;;;2.47;1.33;;;;;;;25.74;40.72;99614.16;5004113;28;20120;-78
2022/06/17 11:23:54;;;;;;;3.67;1.45;;;;;;;25.55;40.83;99630.19;4994620;28;20462;-78
2022/06/17 11:26:26;;;;;;;2.42;1.48;;;;;;;25.71;40.34;99625.75;4994569;28;20434;-78
2022/06/17 11:28:55;;;;;;;1.92;1.30;;;;;;;26.00;39.29;99618.38;5009731;28;20041;-78
2022/06/17 11:31:21;;;;;;;4.95;1.70;;;;;;;26.09;38.30;99612.06;5010214;28;20385;-78
2022/06/17 11:33:52;;;;;;;1.42;1.27;;;;;;;26.40;38.60;99607.03;5010799;28;20026;-78
2022/06/17 11:36:25;;;;;;;5.20;1.65;;;;;;;26.62;39.27;99612.97;5010430;28;20037;-78
2022/06/17 11:38:51;;;;;;;4.63;1.20;;;;;;;26.52;38.88;99609.81;5002185;28;20049;-78
2022/06/17 11:41:27;;;;;;;1.88;1.33;;;;;;;26.63;38.52;99598.13;5005327;28;20037;-78
2022/06/17 11:43:55;;;;;;;3.55;2.10;;;;;;;27.09;37.87;99591.56;5010955;28;20057;-78
2022/06/17 11:46:22;;;;;;;1.25;1.13;;;;;;;27.42;37.93;99602.50;5008862;28;20084;-78
2022/06/17 11:48:57;;;;;;;1.17;0.98;;;;;;;27.67;36.17;99595.91;5013070;28;20677;-78
2022/06/17 11:51:33;;;;;;;0.90;0.90;;;;;;;27.70;36.62;99581.47;5011349;28;20033;-79
2022/06/17 11:54:04;;;;;;;3.42;1.25;;;;;;;27.83;36.29;99593.25;5009619;28;20036;-78
2022/06/17 11:56:31;;;;;;;1.25;1.15;;;;;;;28.14;35.56;99583.28;5015543;28;20037;-78
2022/06/17 11:59:01;;;;;;;2.38;1.23;;;;;;;27.61;34.05;99577.28;5012747;28;20026;-78
2022/06/17 12:01:27;;;;;;;1.45;1.25;;;;;;;27.82;36.40;99578.75;5012329;28;20309;-78
2022/06/17 12:03:52;;;;;;;2.42;1.00;;;;;;;27.91;33.70;99584.09;4992662;28;20037;-78
2022/06/17 12:06:23;;;;;;;3.00;1.35;;;;;;;28.24;34.89;99559.25;4992686;28;20410;-78